sensor_id;sensor_type;location;lat;lon;timestamp;temperature;humidity
15815;DHT22;8008;50.024;8.172;2023-04-06T03:01:13;4.00;70.90
15815;DHT22;8008;50.024;8.172;2023-04-06T03:03:43;3.80;70.80
15815;DHT22;8008;50.024;8.172;2023-04-06T03:06:19;3.60;71.60
15815;DHT22;8008;50.024;8.172;2023-04-06T03:08:51;3.60;72.10
15815;DHT22;8008;50.024;8.172;2023-04-06T03:11:19;3.50;72.40
15815;DHT22;8008;50.024;8.172;2023-04-06T03:13:50;3.50;72.70
15815;DHT22;8008;50.024;8.172;2023-04-06T03:16:19;3.50;72.60
15815;DHT22;8008;50.024;8.172;2023-04-06T03:18:48;3.50;72.50
15815;DHT22;8008;50.024;8.172;2023-04-06T03:21:16;3.40;73.10
15815;DHT22;8008;50.024;8.172;2023-04-06T03:23:50;3.40;73.20
15815;DHT22;8008;50.024;8.172;2023-04-06T03:26:18;3.40;72.90
15815;DHT22;8008;50.024;8.172;2023-04-06T03:28:46;3.30;73.20
15815;DHT22;8008;50.024;8.172;2023-04-06T03:31:14;3.30;73.40
15815;DHT22;8008;50.024;8.172;2023-04-06T03:33:53;3.40;73.50
15815;DHT22;8008;50.024;8.172;2023-04-06T03:36:25;3.30;73.20
15815;DHT22;8008;50.024;8.172;2023-04-06T03:38:55;3.20;73.80
15815;DHT22;8008;50.024;8.172;2023-04-06T03:41:25;3.20;73.90
15815;DHT22;8008;50.024;8.172;2023-04-06T03:44:05;2.90;74.20
15815;DHT22;8008;50.024;8.172;2023-04-06T03:46:37;2.90;74.70
15815;DHT22;8008;50.024;8.172;2023-04-06T03:49:06;3.00;75.00
15815;DHT22;8008;50.024;8.172;2023-04-06T03:51:35;3.00;75.00
15815;DHT22;8008;50.024;8.172;2023-04-06T03:54:03;3.00;74.80
15815;DHT22;8008;50.024;8.172;2023-04-06T03:56:31;3.20;74.70
15815;DHT22;8008;50.024;8.172;2023-04-06T03:58:59;3.20;74.50
15815;DHT22;8008;50.024;8.172;2023-04-06T04:01:28;3.20;74.50
15815;DHT22;8008;50.024;8.172;2023-04-06T04:03:56;3.20;75.00
15815;DHT22;8008;50.024;8.172;2023-04-06T04:06:25;3.20;74.20
15815;DHT22;8008;50.024;8.172;2023-04-06T04:08:55;3.10;74.20
15815;DHT22;8008;50.024;8.172;2023-04-06T04:11:23;3.00;74.70
15815;DHT22;8008;50.024;8.172;2023-04-06T04:13:56;3.00;74.90
15815;DHT22;8008;50.024;8.172;2023-04-06T04:16:24;3.10;74.90
15815;DHT22;8008;50.024;8.172;2023-04-06T04:18:52;3.10;74.50
15815;DHT22;8008;50.024;8.172;2023-04-06T04:21:29;3.00;74.80
15815;DHT22;8008;50.024;8.172;2023-04-06T04:23:59;3.00;74.80
15815;DHT22;8008;50.024;8.172;2023-04-06T04:26:29;3.00;75.00
15815;DHT22;8008;50.024;8.172;2023-04-06T04:28:57;3.00;74.80
15815;DHT22;8008;50.024;8.172;2023-04-06T04:31:26;3.10;74.80
15815;DHT22;8008;50.024;8.172;2023-04-06T04:33:59;3.20;74.90
15815;DHT22;8008;50.024;8.172;2023-04-06T04:36:34;3.30;74.70
15815;DHT22;8008;50.024;8.172;2023-04-06T04:39:06;3.30;74.30
15815;DHT22;8008;50.024;8.172;2023-04-06T04:41:39;3.20;74.30
15815;DHT22;8008;50.024;8.172;2023-04-06T04:44:10;3.10;74.50
15815;DHT22;8008;50.024;8.172;2023-04-06T04:46:39;3.00;75.10
15815;DHT22;8008;50.024;8.172;2023-04-06T04:49:10;2.90;75.20
15815;DHT22;8008;50.024;8.172;2023-04-06T04:51:41;2.90;75.90
15815;DHT22;8008;50.024;8.172;2023-04-06T04:54:18;3.00;75.70
15815;DHT22;8008;50.024;8.172;2023-04-06T04:56:46;2.90;75.30
15815;DHT22;8008;50.024;8.172;2023-04-06T04:59:43;2.90;75.60
15815;DHT22;8008;50.024;8.172;2023-04-06T05:02:17;2.90;75.80
15815;DHT22;8008;50.024;8.172;2023-04-06T05:04:56;3.00;75.90
15815;DHT22;8008;50.024;8.172;2023-04-06T05:07:27;2.90;75.80
15815;DHT22;8008;50.024;8.172;2023-04-06T05:09:58;3.00;76.50
15815;DHT22;8008;50.024;8.172;2023-04-06T05:12:29;3.10;75.80
15815;DHT22;8008;50.024;8.172;2023-04-06T05:15:10;3.20;75.40
15815;DHT22;8008;50.024;8.172;2023-04-06T05:17:38;3.20;75.30
15815;DHT22;8008;50.024;8.172;2023-04-06T05:20:10;3.10;75.40
15815;DHT22;8008;50.024;8.172;2023-04-06T05:22:46;3.10;75.30
15815;DHT22;8008;50.024;8.172;2023-04-06T05:25:15;3.10;75.60
15815;DHT22;8008;50.024;8.172;2023-04-06T05:27:44;3.00;75.50
15815;DHT22;8008;50.024;8.172;2023-04-06T05:30:39;2.90;76.10
15815;DHT22;8008;50.024;8.172;2023-04-06T05:33:09;2.90;76.40
15815;DHT22;8008;50.024;8.172;2023-04-06T05:35:54;3.00;76.40
15815;DHT22;8008;50.024;8.172;2023-04-06T05:38:24;2.90;76.40
15815;DHT22;8008;50.024;8.172;2023-04-06T05:40:54;2.80;77.00
15815;DHT22;8008;50.024;8.172;2023-04-06T05:43:29;2.90;77.20
15815;DHT22;8008;50.024;8.172;2023-04-06T05:45:58;2.90;77.00
15815;DHT22;8008;50.024;8.172;2023-04-06T05:48:29;3.00;76.90
15815;DHT22;8008;50.024;8.172;2023-04-06T05:50:59;3.00;76.70
15815;DHT22;8008;50.024;8.172;2023-04-06T05:53:40;3.10;76.70
15815;DHT22;8008;50.024;8.172;2023-04-06T05:56:14;3.10;76.70
15815;DHT22;8008;50.024;8.172;2023-04-06T05:58:43;3.20;77.20
15815;DHT22;8008;50.024;8.172;2023-04-06T06:01:14;3.30;76.90
15815;DHT22;8008;50.024;8.172;2023-04-06T06:03:45;3.40;76.80
15815;DHT22;8008;50.024;8.172;2023-04-06T06:06:14;3.40;76.50
15815;DHT22;8008;50.024;8.172;2023-04-06T06:08:56;3.50;76.50
15815;DHT22;8008;50.024;8.172;2023-04-06T06:11:25;3.60;76.30
15815;DHT22;8008;50.024;8.172;2023-04-06T06:13:57;3.60;76.00
15815;DHT22;8008;50.024;8.172;2023-04-06T06:16:25;3.70;76.30
15815;DHT22;8008;50.024;8.172;2023-04-06T06:18:54;3.80;76.20
15815;DHT22;8008;50.024;8.172;2023-04-06T06:21:22;3.80;75.90
15815;DHT22;8008;50.024;8.172;2023-04-06T06:23:57;3.80;76.20
15815;DHT22;8008;50.024;8.172;2023-04-06T06:26:31;3.80;76.50
15815;DHT22;8008;50.024;8.172;2023-04-06T06:29:03;3.80;76.60
15815;DHT22;8008;50.024;8.172;2023-04-06T06:31:35;4.00;76.70
15815;DHT22;8008;50.024;8.172;2023-04-06T06:34:07;4.10;76.60
15815;DHT22;8008;50.024;8.172;2023-04-06T06:36:37;4.10;76.70
15815;DHT22;8008;50.024;8.172;2023-04-06T06:39:09;4.20;76.90
15815;DHT22;8008;50.024;8.172;2023-04-06T06:41:38;4.10;77.20
15815;DHT22;8008;50.024;8.172;2023-04-06T06:44:08;4.10;77.50
15815;DHT22;8008;50.024;8.172;2023-04-06T06:46:43;4.20;78.10
15815;DHT22;8008;50.024;8.172;2023-04-06T06:49:11;4.30;78.40
15815;DHT22;8008;50.024;8.172;2023-04-06T06:51:40;4.30;78.90
15815;DHT22;8008;50.024;8.172;2023-04-06T06:54:10;4.40;78.80
15815;DHT22;8008;50.024;8.172;2023-04-06T06:56:38;4.50;79.00
15815;DHT22;8008;50.024;8.172;2023-04-06T06:59:07;4.60;78.70
15815;DHT22;8008;50.024;8.172;2023-04-06T07:01:45;4.60;78.30
15815;DHT22;8008;50.024;8.172;2023-04-06T07:04:38;4.70;77.60
15815;DHT22;8008;50.024;8.172;2023-04-06T07:07:06;4.60;77.00
15815;DHT22;8008;50.024;8.172;2023-04-06T07:09:36;4.70;77.00
15815;DHT22;8008;50.024;8.172;2023-04-06T07:12:06;4.80;77.00
15815;DHT22;8008;50.024;8.172;2023-04-06T07:14:35;4.90;76.50
15815;DHT22;8008;50.024;8.172;2023-04-06T07:17:05;5.00;76.00
15815;DHT22;8008;50.024;8.172;2023-04-06T07:19:58;5.10;76.10
15815;DHT22;8008;50.024;8.172;2023-04-06T07:22:26;5.10;76.40
15815;DHT22;8008;50.024;8.172;2023-04-06T07:24:55;5.30;76.10
15815;DHT22;8008;50.024;8.172;2023-04-06T07:27:25;5.40;74.50
15815;DHT22;8008;50.024;8.172;2023-04-06T07:29:54;5.40;74.40
15815;DHT22;8008;50.024;8.172;2023-04-06T07:32:25;5.40;74.20
15815;DHT22;8008;50.024;8.172;2023-04-06T07:34:55;5.60;73.90
15815;DHT22;8008;50.024;8.172;2023-04-06T07:37:28;5.80;72.90
15815;DHT22;8008;50.024;8.172;2023-04-06T07:39:59;5.90;72.70
15815;DHT22;8008;50.024;8.172;2023-04-06T07:42:31;6.00;72.20
15815;DHT22;8008;50.024;8.172;2023-04-06T07:45:04;6.10;71.70
15815;DHT22;8008;50.024;8.172;2023-04-06T07:47:44;6.20;71.10
15815;DHT22;8008;50.024;8.172;2023-04-06T07:50:15;6.30;71.10
15815;DHT22;8008;50.024;8.172;2023-04-06T07:52:59;6.40;70.50
15815;DHT22;8008;50.024;8.172;2023-04-06T07:55:29;6.50;69.90
15815;DHT22;8008;50.024;8.172;2023-04-06T07:57:57;6.60;69.90
15815;DHT22;8008;50.024;8.172;2023-04-06T08:00:30;6.70;69.80
15815;DHT22;8008;50.024;8.172;2023-04-06T08:02:58;6.80;69.10
15815;DHT22;8008;50.024;8.172;2023-04-06T08:05:26;6.90;68.60
15815;DHT22;8008;50.024;8.172;2023-04-06T08:07:54;6.90;68.90
15815;DHT22;8008;50.024;8.172;2023-04-06T08:10:21;6.90;68.80
15815;DHT22;8008;50.024;8.172;2023-04-06T08:12:51;7.00;69.40
15815;DHT22;8008;50.024;8.172;2023-04-06T08:15:19;7.00;68.40
15815;DHT22;8008;50.024;8.172;2023-04-06T08:17:47;7.20;67.90
15815;DHT22;8008;50.024;8.172;2023-04-06T08:20:17;7.00;67.90
15815;DHT22;8008;50.024;8.172;2023-04-06T08:22:51;7.20;68.30
15815;DHT22;8008;50.024;8.172;2023-04-06T08:25:23;7.20;68.10
15815;DHT22;8008;50.024;8.172;2023-04-06T08:27:53;7.30;68.40
15815;DHT22;8008;50.024;8.172;2023-04-06T08:30:21;7.40;67.40
15815;DHT22;8008;50.024;8.172;2023-04-06T08:32:53;7.40;67.10
15815;DHT22;8008;50.024;8.172;2023-04-06T08:35:21;7.60;67.50
15815;DHT22;8008;50.024;8.172;2023-04-06T08:37:59;7.70;67.00
15815;DHT22;8008;50.024;8.172;2023-04-06T08:40:27;7.70;66.50
15815;DHT22;8008;50.024;8.172;2023-04-06T08:42:56;7.70;66.20
15815;DHT22;8008;50.024;8.172;2023-04-06T08:45:28;7.60;66.20
15815;DHT22;8008;50.024;8.172;2023-04-06T08:47:57;7.70;66.20
15815;DHT22;8008;50.024;8.172;2023-04-06T08:50:29;7.80;66.60
15815;DHT22;8008;50.024;8.172;2023-04-06T08:52:59;7.90;66.10
15815;DHT22;8008;50.024;8.172;2023-04-06T08:55:29;8.10;65.00
15815;DHT22;8008;50.024;8.172;2023-04-06T08:58:01;8.20;64.10
15815;DHT22;8008;50.024;8.172;2023-04-06T09:00:30;8.30;63.60
15815;DHT22;8008;50.024;8.172;2023-04-06T09:02:58;8.40;62.50
15815;DHT22;8008;50.024;8.172;2023-04-06T09:05:28;8.40;62.00
15815;DHT22;8008;50.024;8.172;2023-04-06T09:08:00;8.50;61.70
15815;DHT22;8008;50.024;8.172;2023-04-06T09:10:28;8.50;61.00
15815;DHT22;8008;50.024;8.172;2023-04-06T09:13:04;8.60;60.90
15815;DHT22;8008;50.024;8.172;2023-04-06T09:15:34;8.50;60.40
15815;DHT22;8008;50.024;8.172;2023-04-06T09:18:02;8.60;61.00
15815;DHT22;8008;50.024;8.172;2023-04-06T09:20:30;8.80;60.60
15815;DHT22;8008;50.024;8.172;2023-04-06T09:22:58;9.00;60.10
15815;DHT22;8008;50.024;8.172;2023-04-06T09:25:26;9.10;60.00
15815;DHT22;8008;50.024;8.172;2023-04-06T09:28:01;9.10;59.50
15815;DHT22;8008;50.024;8.172;2023-04-06T09:30:31;9.30;59.50
15815;DHT22;8008;50.024;8.172;2023-04-06T09:32:59;9.50;59.40
15815;DHT22;8008;50.024;8.172;2023-04-06T09:35:27;9.60;58.80
15815;DHT22;8008;50.024;8.172;2023-04-06T09:37:57;9.80;59.00
15815;DHT22;8008;50.024;8.172;2023-04-06T09:40:24;9.90;58.80
15815;DHT22;8008;50.024;8.172;2023-04-06T09:42:52;10.00;57.70
15815;DHT22;8008;50.024;8.172;2023-04-06T09:45:24;10.30;57.50
15815;DHT22;8008;50.024;8.172;2023-04-06T09:47:54;10.60;57.00
15815;DHT22;8008;50.024;8.172;2023-04-06T09:50:24;10.90;56.20
15815;DHT22;8008;50.024;8.172;2023-04-06T09:52:54;11.10;55.90
15815;DHT22;8008;50.024;8.172;2023-04-06T09:55:27;11.30;56.00
15815;DHT22;8008;50.024;8.172;2023-04-06T09:58:03;11.60;55.10
15815;DHT22;8008;50.024;8.172;2023-04-06T10:00:33;11.80;55.00
15815;DHT22;8008;50.024;8.172;2023-04-06T10:03:11;12.10;55.10
15815;DHT22;8008;50.024;8.172;2023-04-06T10:05:45;12.40;54.50
15815;DHT22;8008;50.024;8.172;2023-04-06T10:08:14;12.60;53.80
15815;DHT22;8008;50.024;8.172;2023-04-06T10:10:43;12.80;53.80
15815;DHT22;8008;50.024;8.172;2023-04-06T10:13:11;13.10;53.50
15815;DHT22;8008;50.024;8.172;2023-04-06T10:15:39;13.40;53.10
15815;DHT22;8008;50.024;8.172;2023-04-06T10:18:09;13.50;52.60
15815;DHT22;8008;50.024;8.172;2023-04-06T10:20:41;13.70;52.60
15815;DHT22;8008;50.024;8.172;2023-04-06T10:23:12;13.90;52.60
15815;DHT22;8008;50.024;8.172;2023-04-06T10:25:52;14.10;52.80
15815;DHT22;8008;50.024;8.172;2023-04-06T10:28:20;14.10;52.70
15815;DHT22;8008;50.024;8.172;2023-04-06T10:30:49;14.30;52.20
15815;DHT22;8008;50.024;8.172;2023-04-06T10:33:19;14.30;51.90
15815;DHT22;8008;50.024;8.172;2023-04-06T10:35:47;14.20;52.10
15815;DHT22;8008;50.024;8.172;2023-04-06T10:38:15;14.30;52.10
15815;DHT22;8008;50.024;8.172;2023-04-06T10:40:48;14.20;51.90
15815;DHT22;8008;50.024;8.172;2023-04-06T10:43:19;14.20;52.10
15815;DHT22;8008;50.024;8.172;2023-04-06T10:45:55;14.30;51.70
15815;DHT22;8008;50.024;8.172;2023-04-06T10:48:25;14.40;51.90
15815;DHT22;8008;50.024;8.172;2023-04-06T10:51:07;14.40;51.30
15815;DHT22;8008;50.024;8.172;2023-04-06T10:53:35;14.10;50.80
15815;DHT22;8008;50.024;8.172;2023-04-06T10:56:04;14.20;51.90
15815;DHT22;8008;50.024;8.172;2023-04-06T10:58:36;14.40;52.10
15815;DHT22;8008;50.024;8.172;2023-04-06T11:01:05;14.60;51.20
15815;DHT22;8008;50.024;8.172;2023-04-06T11:03:42;14.30;50.10
15815;DHT22;8008;50.024;8.172;2023-04-06T11:06:17;14.00;51.30
15815;DHT22;8008;50.024;8.172;2023-04-06T11:08:45;14.00;51.70
15815;DHT22;8008;50.024;8.172;2023-04-06T11:11:15;13.90;51.60
15815;DHT22;8008;50.024;8.172;2023-04-06T11:13:48;13.90;52.10
15815;DHT22;8008;50.024;8.172;2023-04-06T11:16:17;13.80;51.30
15815;DHT22;8008;50.024;8.172;2023-04-06T11:18:52;13.50;51.90
15815;DHT22;8008;50.024;8.172;2023-04-06T11:21:33;13.20;51.60
15815;DHT22;8008;50.024;8.172;2023-04-06T11:24:06;12.90;51.80
15815;DHT22;8008;50.024;8.172;2023-04-06T11:26:38;12.80;51.70
15815;DHT22;8008;50.024;8.172;2023-04-06T11:29:07;12.80;52.60
15815;DHT22;8008;50.024;8.172;2023-04-06T11:31:42;13.00;52.40
15815;DHT22;8008;50.024;8.172;2023-04-06T11:34:12;13.30;53.10
15815;DHT22;8008;50.024;8.172;2023-04-06T11:36:41;13.70;53.20
15815;DHT22;8008;50.024;8.172;2023-04-06T11:39:09;14.10;52.80
15815;DHT22;8008;50.024;8.172;2023-04-06T11:41:37;14.30;52.20
15815;DHT22;8008;50.024;8.172;2023-04-06T11:44:06;14.40;52.10
15815;DHT22;8008;50.024;8.172;2023-04-06T11:46:34;14.60;52.10
15815;DHT22;8008;50.024;8.172;2023-04-06T11:49:02;14.90;51.50
15815;DHT22;8008;50.024;8.172;2023-04-06T11:51:35;15.70;52.80
15815;DHT22;8008;50.024;8.172;2023-04-06T11:54:03;16.20;51.20
15815;DHT22;8008;50.024;8.172;2023-04-06T11:56:31;16.20;49.60
15815;DHT22;8008;50.024;8.172;2023-04-06T11:58:59;16.40;50.00
15815;DHT22;8008;50.024;8.172;2023-04-06T12:01:27;16.20;49.60
15815;DHT22;8008;50.024;8.172;2023-04-06T12:03:56;16.40;49.50
15815;DHT22;8008;50.024;8.172;2023-04-06T12:06:25;16.60;48.60
15815;DHT22;8008;50.024;8.172;2023-04-06T12:08:54;16.70;47.50
15815;DHT22;8008;50.024;8.172;2023-04-06T12:11:22;16.60;48.10
15815;DHT22;8008;50.024;8.172;2023-04-06T12:13:50;16.40;48.10
15815;DHT22;8008;50.024;8.172;2023-04-06T12:16:18;16.60;48.00
15815;DHT22;8008;50.024;8.172;2023-04-06T12:18:46;16.90;48.50
15815;DHT22;8008;50.024;8.172;2023-04-06T12:21:14;16.50;48.00
15815;DHT22;8008;50.024;8.172;2023-04-06T12:23:42;16.40;48.10
15815;DHT22;8008;50.024;8.172;2023-04-06T12:26:12;16.40;47.90
15815;DHT22;8008;50.024;8.172;2023-04-06T12:28:39;16.00;47.50
15815;DHT22;8008;50.024;8.172;2023-04-06T12:31:13;15.40;47.40
15815;DHT22;8008;50.024;8.172;2023-04-06T12:33:41;15.30;48.40
15815;DHT22;8008;50.024;8.172;2023-04-06T12:36:12;15.50;49.10
15815;DHT22;8008;50.024;8.172;2023-04-06T12:38:40;15.80;48.50
15815;DHT22;8008;50.024;8.172;2023-04-06T12:41:08;15.80;47.80
15815;DHT22;8008;50.024;8.172;2023-04-06T12:43:38;15.80;48.00
15815;DHT22;8008;50.024;8.172;2023-04-06T12:46:06;15.70;47.80
15815;DHT22;8008;50.024;8.172;2023-04-06T12:48:34;15.70;47.40
15815;DHT22;8008;50.024;8.172;2023-04-06T12:51:04;15.80;48.00
15815;DHT22;8008;50.024;8.172;2023-04-06T12:53:33;15.80;48.40
15815;DHT22;8008;50.024;8.172;2023-04-06T12:56:02;15.70;47.60
15815;DHT22;8008;50.024;8.172;2023-04-06T12:58:39;15.60;47.50
15815;DHT22;8008;50.024;8.172;2023-04-06T13:01:08;15.40;47.70
15815;DHT22;8008;50.024;8.172;2023-04-06T13:03:37;15.60;48.70
15815;DHT22;8008;50.024;8.172;2023-04-06T13:06:05;15.80;48.10
15815;DHT22;8008;50.024;8.172;2023-04-06T13:08:35;16.00;48.40
15815;DHT22;8008;50.024;8.172;2023-04-06T13:11:04;15.90;46.80
15815;DHT22;8008;50.024;8.172;2023-04-06T13:13:35;15.80;48.10
15815;DHT22;8008;50.024;8.172;2023-04-06T13:16:06;16.00;48.00
15815;DHT22;8008;50.024;8.172;2023-04-06T13:18:35;16.00;47.10
15815;DHT22;8008;50.024;8.172;2023-04-06T13:21:05;15.90;45.80
15815;DHT22;8008;50.024;8.172;2023-04-06T13:23:33;15.80;46.50
15815;DHT22;8008;50.024;8.172;2023-04-06T13:26:03;15.80;46.20
15815;DHT22;8008;50.024;8.172;2023-04-06T13:28:33;15.50;45.80
15815;DHT22;8008;50.024;8.172;2023-04-06T13:31:02;15.20;45.50
15815;DHT22;8008;50.024;8.172;2023-04-06T13:33:31;15.10;45.10
15815;DHT22;8008;50.024;8.172;2023-04-06T13:35:59;15.20;45.10
15815;DHT22;8008;50.024;8.172;2023-04-06T13:38:27;15.10;44.60
15815;DHT22;8008;50.024;8.172;2023-04-06T13:40:55;15.00;43.90
15815;DHT22;8008;50.024;8.172;2023-04-06T13:43:24;15.10;44.00
15815;DHT22;8008;50.024;8.172;2023-04-06T13:45:54;15.10;44.20
15815;DHT22;8008;50.024;8.172;2023-04-06T13:48:24;14.90;43.90
15815;DHT22;8008;50.024;8.172;2023-04-06T13:50:54;15.00;44.30
15815;DHT22;8008;50.024;8.172;2023-04-06T13:53:22;15.10;43.60
15815;DHT22;8008;50.024;8.172;2023-04-06T13:55:53;15.00;43.50
15815;DHT22;8008;50.024;8.172;2023-04-06T13:58:21;14.80;43.40
15815;DHT22;8008;50.024;8.172;2023-04-06T14:00:49;14.60;42.70
15815;DHT22;8008;50.024;8.172;2023-04-06T14:03:17;14.50;42.70
15815;DHT22;8008;50.024;8.172;2023-04-06T14:05:46;14.50;42.40
15815;DHT22;8008;50.024;8.172;2023-04-06T14:08:15;14.60;43.20
15815;DHT22;8008;50.024;8.172;2023-04-06T14:10:43;14.70;42.40
15815;DHT22;8008;50.024;8.172;2023-04-06T14:13:11;14.80;42.30
15815;DHT22;8008;50.024;8.172;2023-04-06T14:15:39;14.80;42.40
15815;DHT22;8008;50.024;8.172;2023-04-06T14:18:07;14.60;43.10
15815;DHT22;8008;50.024;8.172;2023-04-06T14:20:35;14.50;44.10
15815;DHT22;8008;50.024;8.172;2023-04-06T14:23:03;14.60;44.50
15815;DHT22;8008;50.024;8.172;2023-04-06T14:25:32;14.70;45.20
15815;DHT22;8008;50.024;8.172;2023-04-06T14:28:01;14.60;44.90
15815;DHT22;8008;50.024;8.172;2023-04-06T14:30:30;14.50;45.10
15815;DHT22;8008;50.024;8.172;2023-04-06T14:32:58;14.60;45.20
15815;DHT22;8008;50.024;8.172;2023-04-06T14:35:27;14.80;45.50
15815;DHT22;8008;50.024;8.172;2023-04-06T14:37:55;14.80;45.80
15815;DHT22;8008;50.024;8.172;2023-04-06T14:40:24;14.80;46.30
15815;DHT22;8008;50.024;8.172;2023-04-06T14:42:54;14.80;45.80
15815;DHT22;8008;50.024;8.172;2023-04-06T14:45:23;14.70;46.20
15815;DHT22;8008;50.024;8.172;2023-04-06T14:47:51;14.70;46.10
15815;DHT22;8008;50.024;8.172;2023-04-06T14:50:19;14.80;46.80
15815;DHT22;8008;50.024;8.172;2023-04-06T14:52:46;14.70;46.10
15815;DHT22;8008;50.024;8.172;2023-04-06T14:55:14;14.50;46.10
15815;DHT22;8008;50.024;8.172;2023-04-06T14:57:42;14.30;46.30
15815;DHT22;8008;50.024;8.172;2023-04-06T15:00:13;14.30;46.60
15815;DHT22;8008;50.024;8.172;2023-04-06T15:02:41;14.20;46.70
15815;DHT22;8008;50.024;8.172;2023-04-06T15:05:10;14.00;46.30
15815;DHT22;8008;50.024;8.172;2023-04-06T15:07:38;13.90;46.30
15815;DHT22;8008;50.024;8.172;2023-04-06T15:10:07;13.90;46.40
15815;DHT22;8008;50.024;8.172;2023-04-06T15:12:37;13.90;46.50
15815;DHT22;8008;50.024;8.172;2023-04-06T15:15:06;13.80;46.70
15815;DHT22;8008;50.024;8.172;2023-04-06T15:17:36;13.70;46.90
15815;DHT22;8008;50.024;8.172;2023-04-06T15:20:05;13.70;47.20
15815;DHT22;8008;50.024;8.172;2023-04-06T15:22:33;13.70;47.50
15815;DHT22;8008;50.024;8.172;2023-04-06T15:25:01;13.70;47.50
15815;DHT22;8008;50.024;8.172;2023-04-06T15:27:29;13.70;48.00
15815;DHT22;8008;50.024;8.172;2023-04-06T15:29:57;13.70;47.30
15815;DHT22;8008;50.024;8.172;2023-04-06T15:32:26;13.60;47.00
15815;DHT22;8008;50.024;8.172;2023-04-06T15:37:26;13.70;47.10
15815;DHT22;8008;50.024;8.172;2023-04-06T15:39:54;13.50;46.90
15815;DHT22;8008;50.024;8.172;2023-04-06T15:42:23;13.50;46.80
15815;DHT22;8008;50.024;8.172;2023-04-06T15:44:51;13.50;46.70
15815;DHT22;8008;50.024;8.172;2023-04-06T15:47:19;13.50;46.50
15815;DHT22;8008;50.024;8.172;2023-04-06T15:49:47;13.40;46.30
15815;DHT22;8008;50.024;8.172;2023-04-06T15:52:15;13.40;46.80
15815;DHT22;8008;50.024;8.172;2023-04-06T15:54:45;13.40;47.00
15815;DHT22;8008;50.024;8.172;2023-04-06T15:57:13;13.40;47.20
15815;DHT22;8008;50.024;8.172;2023-04-06T15:59:41;13.30;47.30
15815;DHT22;8008;50.024;8.172;2023-04-06T16:02:09;13.20;47.50
15815;DHT22;8008;50.024;8.172;2023-04-06T16:04:37;13.10;47.50
15815;DHT22;8008;50.024;8.172;2023-04-06T16:07:05;13.20;48.40
15815;DHT22;8008;50.024;8.172;2023-04-06T16:09:33;13.10;48.70
15815;DHT22;8008;50.024;8.172;2023-04-06T16:12:03;12.80;49.10
15815;DHT22;8008;50.024;8.172;2023-04-06T16:14:31;12.70;49.70
15815;DHT22;8008;50.024;8.172;2023-04-06T16:16:59;12.60;50.10
15815;DHT22;8008;50.024;8.172;2023-04-06T16:19:26;12.70;50.40
15815;DHT22;8008;50.024;8.172;2023-04-06T16:21:54;12.70;50.30
15815;DHT22;8008;50.024;8.172;2023-04-06T16:24:23;12.70;50.50
15815;DHT22;8008;50.024;8.172;2023-04-06T16:26:51;12.70;50.90
15815;DHT22;8008;50.024;8.172;2023-04-06T16:29:20;12.60;51.20
15815;DHT22;8008;50.024;8.172;2023-04-06T16:31:48;12.50;51.70
15815;DHT22;8008;50.024;8.172;2023-04-06T16:34:16;12.50;52.20
15815;DHT22;8008;50.024;8.172;2023-04-06T16:36:44;12.50;52.10
15815;DHT22;8008;50.024;8.172;2023-04-06T16:39:12;12.50;52.30
15815;DHT22;8008;50.024;8.172;2023-04-06T16:41:40;12.40;52.80
15815;DHT22;8008;50.024;8.172;2023-04-06T16:44:08;12.40;53.30
15815;DHT22;8008;50.024;8.172;2023-04-06T16:46:38;12.30;53.50
15815;DHT22;8008;50.024;8.172;2023-04-06T16:49:07;12.30;53.70
15815;DHT22;8008;50.024;8.172;2023-04-06T16:51:34;12.40;53.50
15815;DHT22;8008;50.024;8.172;2023-04-06T16:54:03;12.30;53.70
15815;DHT22;8008;50.024;8.172;2023-04-06T16:56:31;12.20;54.10
15815;DHT22;8008;50.024;8.172;2023-04-06T16:58:59;12.20;54.20
15815;DHT22;8008;50.024;8.172;2023-04-06T17:01:28;12.10;54.50
15815;DHT22;8008;50.024;8.172;2023-04-06T17:03:57;12.00;54.60
15815;DHT22;8008;50.024;8.172;2023-04-06T17:06:25;12.10;55.10
15815;DHT22;8008;50.024;8.172;2023-04-06T17:08:53;12.10;55.40
15815;DHT22;8008;50.024;8.172;2023-04-06T17:11:23;12.00;55.40
15815;DHT22;8008;50.024;8.172;2023-04-06T17:14:10;11.90;55.90
15815;DHT22;8008;50.024;8.172;2023-04-06T17:16:38;11.90;56.30
15815;DHT22;8008;50.024;8.172;2023-04-06T17:19:08;11.80;56.70
15815;DHT22;8008;50.024;8.172;2023-04-06T17:21:37;11.70;57.10
15815;DHT22;8008;50.024;8.172;2023-04-06T17:24:05;11.60;57.70
15815;DHT22;8008;50.024;8.172;2023-04-06T17:26:34;11.50;58.30
15815;DHT22;8008;50.024;8.172;2023-04-06T17:29:02;11.50;59.10
15815;DHT22;8008;50.024;8.172;2023-04-06T17:31:30;11.40;59.90
15815;DHT22;8008;50.024;8.172;2023-04-06T17:33:58;11.40;60.00
15815;DHT22;8008;50.024;8.172;2023-04-06T17:36:27;11.40;59.90
15815;DHT22;8008;50.024;8.172;2023-04-06T17:38:55;11.40;60.10
15815;DHT22;8008;50.024;8.172;2023-04-06T17:41:23;11.30;60.10
15815;DHT22;8008;50.024;8.172;2023-04-06T17:43:52;11.30;60.40
15815;DHT22;8008;50.024;8.172;2023-04-06T17:46:19;11.30;60.90
15815;DHT22;8008;50.024;8.172;2023-04-06T17:48:50;11.30;62.30
15815;DHT22;8008;50.024;8.172;2023-04-06T17:51:18;11.30;63.20
15815;DHT22;8008;50.024;8.172;2023-04-06T17:53:48;11.10;65.20
15815;DHT22;8008;50.024;8.172;2023-04-06T17:56:16;11.00;68.20
15815;DHT22;8008;50.024;8.172;2023-04-06T17:58:44;10.80;68.10
15815;DHT22;8008;50.024;8.172;2023-04-06T18:01:12;10.80;69.30
15815;DHT22;8008;50.024;8.172;2023-04-06T18:03:40;10.80;69.90
15815;DHT22;8008;50.024;8.172;2023-04-06T18:06:09;10.70;70.60
15815;DHT22;8008;50.024;8.172;2023-04-06T18:08:37;10.60;72.90
15815;DHT22;8008;50.024;8.172;2023-04-06T18:11:08;10.30;75.80
15815;DHT22;8008;50.024;8.172;2023-04-06T18:13:37;10.20;78.80
15815;DHT22;8008;50.024;8.172;2023-04-06T18:16:06;10.10;81.50
15815;DHT22;8008;50.024;8.172;2023-04-06T18:18:34;10.00;82.70
15815;DHT22;8008;50.024;8.172;2023-04-06T18:21:05;9.90;85.70
15815;DHT22;8008;50.024;8.172;2023-04-06T18:23:33;9.80;86.50
15815;DHT22;8008;50.024;8.172;2023-04-06T18:26:03;9.70;88.00
15815;DHT22;8008;50.024;8.172;2023-04-06T18:28:33;9.70;90.40
15815;DHT22;8008;50.024;8.172;2023-04-06T18:31:01;9.70;90.70
15815;DHT22;8008;50.024;8.172;2023-04-06T18:33:29;9.70;91.50
15815;DHT22;8008;50.024;8.172;2023-04-06T18:35:58;9.50;92.60
15815;DHT22;8008;50.024;8.172;2023-04-06T18:38:26;9.40;93.80
15815;DHT22;8008;50.024;8.172;2023-04-06T18:40:53;9.40;95.30
15815;DHT22;8008;50.024;8.172;2023-04-06T18:43:21;9.40;97.60
15815;DHT22;8008;50.024;8.172;2023-04-06T18:45:52;9.30;98.10
15815;DHT22;8008;50.024;8.172;2023-04-06T18:48:19;9.30;99.90
15815;DHT22;8008;50.024;8.172;2023-04-06T18:50:51;9.30;99.90
15815;DHT22;8008;50.024;8.172;2023-04-06T18:53:19;9.30;99.90
15815;DHT22;8008;50.024;8.172;2023-04-06T18:55:49;9.20;99.90
15815;DHT22;8008;50.024;8.172;2023-04-06T18:58:17;9.30;99.90
15815;DHT22;8008;50.024;8.172;2023-04-06T19:00:44;9.20;99.90
15815;DHT22;8008;50.024;8.172;2023-04-06T19:03:14;9.10;99.90
15815;DHT22;8008;50.024;8.172;2023-04-06T19:05:44;9.10;99.90
15815;DHT22;8008;50.024;8.172;2023-04-06T19:08:12;9.20;99.90
15815;DHT22;8008;50.024;8.172;2023-04-06T19:10:40;9.20;99.90
15815;DHT22;8008;50.024;8.172;2023-04-06T19:13:08;9.20;99.90